Time;durP1;ratioP1;P1;durP2;ratioP2;P2;SDS_P1;SDS_P2;PMS_P1;PMS_P2;Temp;Humidity;BMP_temperature;BMP_pressure;BME280_temperature;BME280_humidity;BME280_pressure;Samples;Min_cycle;Max_cycle;Signal;HPM_P1;HPM_P2
2021/12/26 00:00:28;;;;;;;1.60;1.40;;;;;;;;;;4978636;28;20048;-59
2021/12/26 00:02:58;;;;;;;2.78;1.75;;;;;;;;;;4961585;28;20647;-59
2021/12/26 00:05:27;;;;;;;4.72;2.15;;;;;;;;;;4946106;28;22028;-58
2021/12/26 00:07:53;;;;;;;1.92;1.48;;;;;;;;;;4964931;28;21148;-58
2021/12/26 00:10:20;;;;;;;10.50;2.42;;;;;;;;;;4944643;28;20072;-58
2021/12/26 00:12:49;;;;;;;2.00;1.58;;;;;;;;;;4963544;28;20157;-58
2021/12/26 00:15:19;;;;;;;6.28;2.25;;;;;;;;;;4964585;28;20038;-58
2021/12/26 00:17:45;;;;;;;2.42;1.58;;;;;;;;;;4961413;28;20049;-58
2021/12/26 00:20:16;;;;;;;3.90;1.95;;;;;;;;;;4963925;28;20750;-58
2021/12/26 00:22:41;;;;;;;7.28;2.00;;;;;;;;;;4947551;28;20052;-58
2021/12/26 00:25:12;;;;;;;9.10;2.13;;;;;;;;;;4962946;28;20437;-58
2021/12/26 00:27:39;;;;;;;2.05;1.70;;;;;;;;;;4969318;28;20041;-59
2021/12/26 00:30:10;;;;;;;8.20;2.28;;;;;;;;;;4968638;28;20058;-59
2021/12/26 00:32:36;;;;;;;3.70;2.42;;;;;;;;;;4969611;28;20038;-57
2021/12/26 00:35:05;;;;;;;5.15;2.35;;;;;;;;;;4969033;28;20932;-60
2021/12/26 00:37:32;;;;;;;4.18;1.55;;;;;;;;;;4970242;28;20149;-57
2021/12/26 00:40:00;;;;;;;1.77;1.38;;;;;;;;;;4962797;28;20042;-58
2021/12/26 00:42:28;;;;;;;1.45;0.85;;;;;;;;;;4966234;28;20054;-58
2021/12/26 00:44:55;;;;;;;4.80;1.92;;;;;;;;;;4966500;28;20041;-57
2021/12/26 00:47:29;;;;;;;1.75;1.52;;;;;;;;;;4967284;28;20591;-60
2021/12/26 00:49:54;;;;;;;5.43;2.00;;;;;;;;;;4967800;28;20118;-57
2021/12/26 00:56:00;;;;;;;1.77;1.02;;;;;;;;;;4966891;28;20085;-57
2021/12/26 00:58:26;;;;;;;3.47;1.38;;;;;;;;;;4933233;28;20030;-59
2021/12/26 01:00:56;;;;;;;12.40;1.25;;;;;;;;;;4979063;28;20568;-59
2021/12/26 01:03:25;;;;;;;3.75;1.33;;;;;;;;;;4965923;28;20039;-57
2021/12/26 01:05:55;;;;;;;2.33;1.27;;;;;;;;;;4948033;28;20049;-58
2021/12/26 01:08:27;;;;;;;1.15;0.93;;;;;;;;;;4968228;28;21190;-57
2021/12/26 01:11:03;;;;;;;4.32;1.98;;;;;;;;;;4968337;28;20065;-58
2021/12/26 01:13:35;;;;;;;3.28;2.08;;;;;;;;;;4967311;28;20053;-57
2021/12/26 01:16:02;;;;;;;3.33;1.77;;;;;;;;;;4968508;28;20064;-57
2021/12/26 01:18:31;;;;;;;2.22;1.15;;;;;;;;;;4976350;28;20047;-57
2021/12/26 01:21:03;;;;;;;1.08;0.95;;;;;;;;;;4967834;28;20104;-59
2021/12/26 01:23:32;;;;;;;1.15;1.05;;;;;;;;;;4966787;28;20069;-59
2021/12/26 01:25:58;;;;;;;3.80;1.80;;;;;;;;;;4979817;28;22018;-58
2021/12/26 01:28:28;;;;;;;11.23;2.05;;;;;;;;;;4942969;28;20042;-58
2021/12/26 01:30:56;;;;;;;5.22;1.75;;;;;;;;;;4964041;28;20038;-59
2021/12/26 01:33:27;;;;;;;1.38;1.13;;;;;;;;;;4967040;28;20022;-59
2021/12/26 01:35:55;;;;;;;1.58;0.95;;;;;;;;;;4964995;28;20564;-59
2021/12/26 01:38:26;;;;;;;1.38;1.00;;;;;;;;;;4965371;28;20500;-59
2021/12/26 01:44:28;;;;;;;2.83;1.52;;;;;;;;;;4965983;28;20048;-59
2021/12/26 01:46:59;;;;;;;1.20;1.13;;;;;;;;;;4965476;28;20092;-58
2021/12/26 01:49:28;;;;;;;1.65;1.23;;;;;;;;;;4966149;28;20068;-58
2021/12/26 01:52:00;;;;;;;3.25;1.30;;;;;;;;;;4965906;28;20066;-58
2021/12/26 01:54:31;;;;;;;1.65;1.55;;;;;;;;;;4965687;28;21055;-60
2021/12/26 01:57:03;;;;;;;2.90;1.55;;;;;;;;;;4965535;28;20081;-59
2021/12/26 01:59:29;;;;;;;1.25;1.13;;;;;;;;;;4959945;28;20038;-58
2021/12/26 02:01:59;;;;;;;1.80;0.95;;;;;;;;;;4961324;28;20038;-59
2021/12/26 02:04:28;;;;;;;5.70;1.35;;;;;;;;;;4966706;28;20050;-58
2021/12/26 02:06:57;;;;;;;2.28;1.00;;;;;;;;;;4980419;28;20246;-58
2021/12/26 02:09:25;;;;;;;4.05;1.08;;;;;;;;;;4966674;28;20027;-58
2021/12/26 02:11:53;;;;;;;2.35;1.80;;;;;;;;;;4981025;28;21176;-58
2021/12/26 02:14:21;;;;;;;3.42;1.20;;;;;;;;;;4966053;28;20109;-59
2021/12/26 02:16:47;;;;;;;2.90;1.30;;;;;;;;;;4965116;28;20044;-57
2021/12/26 02:19:15;;;;;;;0.60;0.40;;;;;;;;;;4964507;28;20051;-59
2021/12/26 02:29:45;;;;;;;0.85;0.73;;;;;;;;;;4977765;28;20050;-59
2021/12/26 02:32:16;;;;;;;2.00;1.10;;;;;;;;;;4963170;28;20038;-61
2021/12/26 02:34:44;;;;;;;0.82;0.70;;;;;;;;;;4964561;28;20794;-59
2021/12/26 02:37:09;;;;;;;1.63;0.70;;;;;;;;;;4950996;28;20045;-58
2021/12/26 02:39:37;;;;;;;6.00;1.98;;;;;;;;;;4976840;28;20121;-58
2021/12/26 02:42:05;;;;;;;2.92;1.23;;;;;;;;;;4959351;28;20041;-58
2021/12/26 02:44:33;;;;;;;2.85;1.10;;;;;;;;;;4965893;28;20038;-59
2021/12/26 02:46:58;;;;;;;3.50;1.45;;;;;;;;;;4965119;28;20049;-57
2021/12/26 02:49:29;;;;;;;1.52;0.90;;;;;;;;;;4963440;28;20050;-59
2021/12/26 02:51:54;;;;;;;4.03;1.25;;;;;;;;;;4965121;28;20394;-57
2021/12/26 02:54:22;;;;;;;3.05;1.20;;;;;;;;;;4959731;28;20058;-58
2021/12/26 02:56:48;;;;;;;2.28;0.90;;;;;;;;;;4966158;28;20034;-58
2021/12/26 02:59:16;;;;;;;5.40;1.80;;;;;;;;;;4979411;28;20072;-58
2021/12/26 03:01:44;;;;;;;1.38;1.08;;;;;;;;;;4929045;28;20186;-58
2021/12/26 03:04:09;;;;;;;4.95;1.15;;;;;;;;;;4963302;28;20038;-58
2021/12/26 03:06:47;;;;;;;2.75;0.90;;;;;;;;;;4964798;28;20039;-57
2021/12/26 03:09:19;;;;;;;0.80;0.80;;;;;;;;;;4965981;28;20070;-58
2021/12/26 03:11:49;;;;;;;3.08;1.45;;;;;;;;;;4943569;28;20030;-57
2021/12/26 03:14:17;;;;;;;3.47;1.70;;;;;;;;;;4943526;28;20043;-58
2021/12/26 03:16:47;;;;;;;1.17;1.02;;;;;;;;;;4965320;28;20062;-58
2021/12/26 03:19:15;;;;;;;4.25;1.13;;;;;;;;;;4979724;28;22051;-59
2021/12/26 03:21:42;;;;;;;1.63;1.05;;;;;;;;;;4961216;28;20062;-60
2021/12/26 03:24:13;;;;;;;2.60;1.50;;;;;;;;;;4964528;28;20650;-60
2021/12/26 03:26:40;;;;;;;1.58;1.02;;;;;;;;;;4947882;28;20125;-59
2021/12/26 03:29:08;;;;;;;2.50;1.30;;;;;;;;;;4964392;28;21946;-59
2021/12/26 03:31:41;;;;;;;3.63;1.02;;;;;;;;;;4946938;28;20060;-60
2021/12/26 03:34:11;;;;;;;4.88;2.05;;;;;;;;;;4962710;28;20080;-59
2021/12/26 03:36:39;;;;;;;2.05;1.10;;;;;;;;;;4980164;28;20035;-59
2021/12/26 03:39:08;;;;;;;3.78;1.98;;;;;;;;;;4963628;28;20038;-59
2021/12/26 03:41:33;;;;;;;0.60;0.60;;;;;;;;;;4965307;28;20749;-61
2021/12/26 03:43:59;;;;;;;2.38;0.82;;;;;;;;;;4963227;28;20072;-59
2021/12/26 03:46:25;;;;;;;1.55;0.98;;;;;;;;;;4963242;28;20047;-58
2021/12/26 03:48:52;;;;;;;1.58;0.60;;;;;;;;;;4965981;28;20286;-58
2021/12/26 03:51:20;;;;;;;1.25;0.85;;;;;;;;;;4962937;28;21040;-57
2021/12/26 03:53:48;;;;;;;2.03;0.82;;;;;;;;;;4962916;28;20043;-57
2021/12/26 03:56:14;;;;;;;3.65;1.27;;;;;;;;;;4975129;28;20088;-60
2021/12/26 03:58:42;;;;;;;0.65;0.43;;;;;;;;;;4979733;28;20050;-57
2021/12/26 04:01:56;;;;;;;2.47;1.00;;;;;;;;;;5101601;23;20097;-88
2021/12/26 04:04:21;;;;;;;3.80;1.67;;;;;;;;;;4955925;29;20062;-91
2021/12/26 04:06:47;;;;;;;0.63;0.63;;;;;;;;;;4961113;29;20035;-90
2021/12/26 04:09:21;;;;;;;2.50;1.10;;;;;;;;;;4973801;28;20157;-88
2021/12/26 04:12:07;;;;;;;1.35;0.60;;;;;;;;;;4942803;29;20149;-88
2021/12/26 04:14:36;;;;;;;0.57;0.50;;;;;;;;;;4953385;29;20582;-89
2021/12/26 04:17:26;;;;;;;1.70;0.90;;;;;;;;;;4951239;28;20078;-91
2021/12/26 04:19:58;;;;;;;1.80;1.42;;;;;;;;;;4936708;29;20028;-90
2021/12/26 04:22:23;;;;;;;1.15;0.88;;;;;;;;;;4962015;28;20035;-89
2021/12/26 04:24:49;;;;;;;2.75;0.82;;;;;;;;;;4948542;29;20338;-89
2021/12/26 04:27:15;;;;;;;1.67;1.00;;;;;;;;;;4958552;29;20106;-90
2021/12/26 04:29:54;;;;;;;;;;;;;;;;;;;;;
2021/12/26 04:32:22;;;;;;;1.70;1.20;;;;;;;;;;4957936;28;20074;-91
2021/12/26 04:35:12;;;;;;;2.70;1.20;;;;;;;;;;4985878;28;20069;-90
2021/12/26 04:37:38;;;;;;;1.58;0.70;;;;;;;;;;4981538;28;20458;-87
2021/12/26 04:40:08;;;;;;;0.50;0.50;;;;;;;;;;4979894;28;20042;-90
2021/12/26 04:42:34;;;;;;;5.15;1.50;;;;;;;;;;4994688;28;20085;-90
2021/12/26 04:45:10;;;;;;;8.23;0.77;;;;;;;;;;4963045;28;20105;-91
2021/12/26 04:47:49;;;;;;;3.35;1.75;;;;;;;;;;4976309;28;20056;-90
2021/12/26 04:50:35;;;;;;;1.27;0.65;;;;;;;;;;4987946;28;22040;-88
2021/12/26 04:53:06;;;;;;;1.13;0.85;;;;;;;;;;4973238;28;20038;-90
2021/12/26 04:55:36;;;;;;;1.42;1.05;;;;;;;;;;4973742;28;20042;-91
2021/12/26 04:58:09;;;;;;;4.03;0.77;;;;;;;;;;4968687;28;20130;-93
2021/12/26 05:00:41;;;;;;;3.40;1.27;;;;;;;;;;4971720;28;20051;-90
2021/12/26 05:03:26;;;;;;;1.38;1.17;;;;;;;;;;4958916;28;20585;-91
2021/12/26 05:05:52;;;;;;;2.03;1.27;;;;;;;;;;4962157;28;20197;-90
2021/12/26 05:08:27;;;;;;;1.10;1.00;;;;;;;;;;4969716;28;20027;-88
2021/12/26 05:10:53;;;;;;;0.85;0.63;;;;;;;;;;4956515;28;20031;-90
2021/12/26 05:13:33;;;;;;;0.38;0.38;;;;;;;;;;4958823;28;20670;-89
2021/12/26 05:16:01;;;;;;;2.78;1.00;;;;;;;;;;4957344;28;20125;-92
2021/12/26 05:18:45;;;;;;;0.90;0.73;;;;;;;;;;4987128;28;20050;-91
2021/12/26 05:21:13;;;;;;;3.00;1.40;;;;;;;;;;4951981;28;20098;-88
2021/12/26 05:23:42;;;;;;;4.10;1.25;;;;;;;;;;4959852;28;20173;-91
2021/12/26 05:26:08;;;;;;;1.90;1.30;;;;;;;;;;4972744;28;20544;-89
2021/12/26 05:28:34;;;;;;;0.93;0.85;;;;;;;;;;4970413;28;20035;-89
2021/12/26 05:33:46;;;;;;;0.73;0.65;;;;;;;;;;4981060;28;20089;-90
2021/12/26 05:36:18;;;;;;;1.73;1.50;;;;;;;;;;4972535;28;20431;-91
2021/12/26 05:38:47;;;;;;;1.17;0.90;;;;;;;;;;4967283;28;20368;-89
2021/12/26 05:41:12;;;;;;;1.25;0.68;;;;;;;;;;4982210;28;20027;-91
2021/12/26 05:43:40;;;;;;;3.97;1.08;;;;;;;;;;4968166;28;20043;-90
2021/12/26 05:46:06;;;;;;;1.45;0.77;;;;;;;;;;4990561;28;20047;-87
2021/12/26 05:48:36;;;;;;;2.58;1.25;;;;;;;;;;4975641;28;20459;-87
2021/12/26 05:51:07;;;;;;;3.42;1.27;;;;;;;;;;4954844;28;20495;-90
2021/12/26 05:53:41;;;;;;;1.65;0.93;;;;;;;;;;4970296;28;20267;-87
2021/12/26 05:56:10;;;;;;;5.00;1.75;;;;;;;;;;4941002;28;20065;-89
2021/12/26 05:58:55;;;;;;;1.65;1.33;;;;;;;;;;4971756;28;20463;-90
2021/12/26 06:01:23;;;;;;;1.95;0.85;;;;;;;;;;4987972;28;20106;-91
2021/12/26 06:03:51;;;;;;;3.45;1.85;;;;;;;;;;4990493;28;20042;-89
2021/12/26 06:06:16;;;;;;;2.63;1.20;;;;;;;;;;5005433;28;20030;-90
2021/12/26 06:08:51;;;;;;;3.88;1.75;;;;;;;;;;4974438;28;20043;-89
2021/12/26 06:11:22;;;;;;;1.17;1.08;;;;;;;;;;5005360;28;20038;-90
2021/12/26 06:14:09;;;;;;;0.77;0.57;;;;;;;;;;4981757;28;20061;-89
2021/12/26 06:16:34;;;;;;;2.20;1.38;;;;;;;;;;4970120;28;20453;-90
2021/12/26 06:19:00;;;;;;;0.85;0.85;;;;;;;;;;4993824;28;20027;-87
2021/12/26 06:21:46;;;;;;;2.40;1.15;;;;;;;;;;5015031;28;20031;-86
2021/12/26 06:24:12;;;;;;;3.70;1.40;;;;;;;;;;5004534;28;20038;-90
2021/12/26 06:26:41;;;;;;;2.50;1.65;;;;;;;;;;5004611;28;20042;-90
2021/12/26 06:29:17;;;;;;;1.88;1.08;;;;;;;;;;4996676;28;20096;-89
2021/12/26 06:35:13;;;;;;;1.48;1.17;;;;;;;;;;4939118;28;20699;-87
2021/12/26 06:37:42;;;;;;;2.60;1.05;;;;;;;;;;4943786;28;21986;-90
2021/12/26 06:40:11;;;;;;;3.17;1.95;;;;;;;;;;4957556;28;20041;-90
2021/12/26 06:42:44;;;;;;;4.38;1.00;;;;;;;;;;4956684;28;20129;-91
2021/12/26 06:45:46;;;;;;;2.33;2.13;;;;;;;;;;4942688;28;20130;-91
2021/12/26 06:48:23;;;;;;;1.30;0.82;;;;;;;;;;4978440;28;20055;-88
2021/12/26 06:51:23;;;;;;;1.25;0.82;;;;;;;;;;4969423;28;20073;-91
2021/12/26 06:53:49;;;;;;;1.02;0.98;;;;;;;;;;4984124;28;20027;-90
2021/12/26 06:56:30;;;;;;;4.82;1.40;;;;;;;;;;4959874;28;20090;-89
2021/12/26 06:58:58;;;;;;;2.55;1.08;;;;;;;;;;4954865;28;20038;-89
2021/12/26 07:01:27;;;;;;;1.67;1.33;;;;;;;;;;4976475;28;20035;-91
2021/12/26 07:03:56;;;;;;;4.90;1.35;;;;;;;;;;4956379;28;20114;-85
2021/12/26 07:10:05;;;;;;;4.00;1.60;;;;;;;;;;4992107;28;20034;-91
2021/12/26 07:20:17;;;;;;;0.98;0.80;;;;;;;;;;4995709;28;20070;-89
2021/12/26 07:27:00;;;;;;;2.22;1.23;;;;;;;;;;4950372;28;20052;-88
2021/12/26 07:36:37;;;;;;;3.90;2.00;;;;;;;;;;4976421;28;20033;-89
2021/12/26 07:46:16;;;;;;;1.83;1.23;;;;;;;;;;4960005;28;20031;-87
2021/12/26 07:49:19;;;;;;;3.65;1.65;;;;;;;;;;4984542;28;20113;-87
2021/12/26 08:06:58;;;;;;;1.58;1.15;;;;;;;;;;4966935;28;20031;-88
2021/12/26 08:29:01;;;;;;;6.55;2.58;;;;;;;;;;4861322;29;20045;-86
2021/12/26 08:31:54;;;;;;;3.05;1.65;;;;;;;;;;4818509;29;20046;-89
2021/12/26 08:42:03;;;;;;;2.95;2.38;;;;;;;;;;4839287;29;20059;-85
2021/12/26 08:48:56;;;;;;;1.95;1.75;;;;;;;;;;4835120;29;20140;-87
2021/12/26 09:09:17;;;;;;;3.55;2.08;;;;;;;;;;4877724;29;20052;-89
2021/12/26 09:12:07;;;;;;;8.57;3.05;;;;;;;;;;4919824;29;20036;-89
2021/12/26 09:14:58;;;;;;;6.18;2.60;;;;;;;;;;4958139;28;20504;-87
2021/12/26 09:17:44;;;;;;;2.28;1.58;;;;;;;;;;4973765;28;20051;-89
2021/12/26 09:20:35;;;;;;;2.97;2.08;;;;;;;;;;4941671;29;20027;-90
2021/12/26 09:28:04;;;;;;;4.47;2.10;;;;;;;;;;4963178;28;20129;-89
2021/12/26 09:30:49;;;;;;;4.40;1.90;;;;;;;;;;4982528;28;20027;-88
2021/12/26 09:51:20;;;;;;;4.13;3.10;;;;;;;;;;4944415;29;20031;-91
2021/12/26 10:05:22;;;;;;;8.35;2.53;;;;;;;;;;4939060;29;20043;-88
2021/12/26 10:14:43;;;;;;;4.75;1.90;;;;;;;;;;4964150;28;20034;-88
2021/12/26 10:17:13;;;;;;;2.42;1.88;;;;;;;;;;4976555;28;20035;-90
2021/12/26 10:19:44;;;;;;;3.72;2.00;;;;;;;;;;4974835;28;20026;-92
2021/12/26 10:22:15;;;;;;;3.80;1.92;;;;;;;;;;4977779;28;20061;-85
2021/12/26 10:24:50;;;;;;;4.68;2.40;;;;;;;;;;4976575;28;20463;-89
2021/12/26 10:27:20;;;;;;;3.60;1.92;;;;;;;;;;4976483;28;20145;-90
2021/12/26 10:29:47;;;;;;;5.93;2.50;;;;;;;;;;4973387;28;20023;-92
2021/12/26 10:32:21;;;;;;;6.88;2.65;;;;;;;;;;4975008;28;20111;-90
2021/12/26 10:35:09;;;;;;;3.30;2.35;;;;;;;;;;4977870;28;20075;-90
2021/12/26 10:37:49;;;;;;;4.30;2.65;;;;;;;;;;4962327;28;20039;-88
2021/12/26 10:40:21;;;;;;;3.28;1.75;;;;;;;;;;4977898;28;20157;-88
2021/12/26 10:42:49;;;;;;;5.85;2.05;;;;;;;;;;4975580;28;20042;-88
2021/12/26 10:45:17;;;;;;;3.30;1.90;;;;;;;;;;4972822;28;20034;-90
2021/12/26 10:47:55;;;;;;;3.47;1.98;;;;;;;;;;4975697;28;20035;-89
2021/12/26 10:50:33;;;;;;;4.40;2.28;;;;;;;;;;4961333;28;20047;-87
2021/12/26 10:53:11;;;;;;;3.03;1.60;;;;;;;;;;4975811;28;20445;-89
2021/12/26 10:55:41;;;;;;;3.83;1.80;;;;;;;;;;4948302;28;20042;-90
2021/12/26 10:58:15;;;;;;;2.38;1.73;;;;;;;;;;4982699;28;20031;-89
2021/12/26 11:00:49;;;;;;;3.25;2.65;;;;;;;;;;4977675;28;20066;-90
2021/12/26 11:03:23;;;;;;;3.88;2.15;;;;;;;;;;4977680;28;20040;-89
2021/12/26 11:05:53;;;;;;;5.70;2.25;;;;;;;;;;4983615;28;20102;-85
2021/12/26 11:08:29;;;;;;;4.88;2.45;;;;;;;;;;4997639;28;20490;-91
2021/12/26 11:10:57;;;;;;;4.95;2.58;;;;;;;;;;4996342;28;20034;-92
2021/12/26 11:13:28;;;;;;;3.95;2.53;;;;;;;;;;4993480;28;20037;-89
2021/12/26 11:16:06;;;;;;;3.58;2.65;;;;;;;;;;4999746;28;20050;-93
2021/12/26 11:18:43;;;;;;;4.55;2.67;;;;;;;;;;5002457;28;20026;-89
2021/12/26 11:21:13;;;;;;;6.18;3.13;;;;;;;;;;4978314;28;20093;-89
2021/12/26 11:23:46;;;;;;;2.75;2.00;;;;;;;;;;4998311;28;20030;-87
2021/12/26 11:26:22;;;;;;;4.60;2.08;;;;;;;;;;4980299;28;20118;-87
2021/12/26 11:28:57;;;;;;;3.45;1.88;;;;;;;;;;4994034;28;20445;-88
2021/12/26 11:31:25;;;;;;;5.53;2.85;;;;;;;;;;4988322;28;20018;-89
2021/12/26 11:33:56;;;;;;;3.33;2.42;;;;;;;;;;4991731;28;20034;-87
2021/12/26 11:36:33;;;;;;;5.20;2.60;;;;;;;;;;4992645;28;20038;-89
2021/12/26 11:39:06;;;;;;;5.10;2.45;;;;;;;;;;4974287;28;20101;-87
2021/12/26 11:41:47;;;;;;;6.95;2.45;;;;;;;;;;4991824;28;20042;-88
2021/12/26 11:44:19;;;;;;;7.57;3.17;;;;;;;;;;4992371;28;20045;-88
2021/12/26 11:47:06;;;;;;;5.65;2.75;;;;;;;;;;4992187;28;20038;-90
2021/12/26 11:49:39;;;;;;;4.40;2.35;;;;;;;;;;4999203;28;20042;-87
2021/12/26 11:52:07;;;;;;;4.55;2.47;;;;;;;;;;4974648;28;20048;-89
2021/12/26 11:54:51;;;;;;;4.47;2.30;;;;;;;;;;4990674;28;20122;-89
2021/12/26 11:57:20;;;;;;;4.80;2.33;;;;;;;;;;5003650;28;20046;-90
2021/12/26 12:00:09;;;;;;;5.45;2.35;;;;;;;;;;5006447;28;20042;-88
2021/12/26 12:03:37;;;;;;;4.70;2.60;;;;;;;;;;4991988;28;20115;-88
2021/12/26 12:06:02;;;;;;;3.65;2.30;;;;;;;;;;4975368;28;20065;-89
2021/12/26 12:08:29;;;;;;;2.88;2.10;;;;;;;;;;4981375;28;20097;-89
2021/12/26 12:10:55;;;;;;;4.07;2.47;;;;;;;;;;5005376;28;20613;-89
2021/12/26 12:13:25;;;;;;;4.45;2.15;;;;;;;;;;4989976;28;20177;-88
2021/12/26 12:16:09;;;;;;;4.07;2.17;;;;;;;;;;4991013;28;20065;-91
2021/12/26 12:18:54;;;;;;;2.67;2.22;;;;;;;;;;4972937;28;20125;-90
2021/12/26 12:21:54;;;;;;;4.40;2.25;;;;;;;;;;4967596;28;20364;-89
2021/12/26 12:24:30;;;;;;;5.68;2.65;;;;;;;;;;4960262;28;20117;-88
2021/12/26 12:27:13;;;;;;;3.80;2.15;;;;;;;;;;4958569;28;20043;-88
2021/12/26 12:29:58;;;;;;;4.32;2.63;;;;;;;;;;4922578;29;20238;-89
2021/12/26 12:32:27;;;;;;;4.97;2.50;;;;;;;;;;4920253;29;20097;-89
2021/12/26 12:35:05;;;;;;;4.50;2.35;;;;;;;;;;4918993;29;20142;-91
2021/12/26 12:37:33;;;;;;;2.70;2.20;;;;;;;;;;4923377;29;20055;-88
2021/12/26 12:40:17;;;;;;;4.57;2.42;;;;;;;;;;4920381;29;20035;-86
2021/12/26 12:43:04;;;;;;;3.88;1.95;;;;;;;;;;4917856;29;20488;-89
2021/12/26 12:49:15;;;;;;;5.18;2.53;;;;;;;;;;4906770;29;20206;-92
2021/12/26 12:51:42;;;;;;;3.75;2.45;;;;;;;;;;4890673;29;20051;-89
2021/12/26 12:54:19;;;;;;;2.38;2.10;;;;;;;;;;4940519;29;20031;-86
2021/12/26 12:56:45;;;;;;;3.65;2.13;;;;;;;;;;4921473;29;20048;-92
2021/12/26 12:59:19;;;;;;;8.10;3.00;;;;;;;;;;4934639;29;20046;-90
2021/12/26 13:01:52;;;;;;;4.50;1.92;;;;;;;;;;4963174;28;20047;-88
2021/12/26 13:04:23;;;;;;;4.30;2.58;;;;;;;;;;4986504;28;20042;-89
2021/12/26 13:07:03;;;;;;;3.35;1.75;;;;;;;;;;4967837;28;20174;-89
2021/12/26 13:09:29;;;;;;;3.05;2.13;;;;;;;;;;4969775;28;20046;-90
2021/12/26 13:11:59;;;;;;;3.50;2.17;;;;;;;;;;4946994;28;20031;-91
2021/12/26 13:14:40;;;;;;;4.88;2.42;;;;;;;;;;4955201;28;20168;-89
2021/12/26 13:17:07;;;;;;;5.47;1.92;;;;;;;;;;4974184;28;20105;-88
2021/12/26 13:19:33;;;;;;;4.28;2.30;;;;;;;;;;4957913;28;20097;-89
2021/12/26 13:21:59;;;;;;;6.28;2.72;;;;;;;;;;4946104;28;20035;-90
2021/12/26 13:24:33;;;;;;;6.00;2.58;;;;;;;;;;4960049;28;20069;-87
2021/12/26 13:26:59;;;;;;;4.10;2.38;;;;;;;;;;4946293;28;20039;-89
2021/12/26 13:29:25;;;;;;;4.15;2.40;;;;;;;;;;4961211;28;20027;-88
2021/12/26 13:31:52;;;;;;;4.70;2.83;;;;;;;;;;4972375;28;20061;-90
2021/12/26 13:34:20;;;;;;;6.10;2.00;;;;;;;;;;4942728;28;20074;-90
2021/12/26 13:37:01;;;;;;;7.18;2.13;;;;;;;;;;4939513;28;20058;-87
2021/12/26 13:39:29;;;;;;;4.00;2.17;;;;;;;;;;4943299;28;20097;-90
2021/12/26 13:41:55;;;;;;;4.28;2.03;;;;;;;;;;4957129;28;20077;-91
2021/12/26 13:44:21;;;;;;;8.60;2.13;;;;;;;;;;4944433;28;20035;-92
2021/12/26 13:46:47;;;;;;;5.85;2.40;;;;;;;;;;4942981;28;20045;-91
2021/12/26 13:49:14;;;;;;;5.00;2.00;;;;;;;;;;4956519;28;20045;-91
2021/12/26 13:51:54;;;;;;;7.40;2.13;;;;;;;;;;4955388;28;20128;-90
2021/12/26 13:54:31;;;;;;;5.22;2.65;;;;;;;;;;4942298;28;20034;-90
2021/12/26 13:57:19;;;;;;;6.00;3.72;;;;;;;;;;4953235;29;20090;-88
2021/12/26 13:59:56;;;;;;;11.68;3.90;;;;;;;;;;4922069;29;20059;-89
2021/12/26 14:02:27;;;;;;;4.18;2.55;;;;;;;;;;4937367;29;20047;-88
2021/12/26 14:05:20;;;;;;;4.90;2.65;;;;;;;;;;4922338;29;20023;-91
2021/12/26 14:07:59;;;;;;;2.20;1.75;;;;;;;;;;4939724;28;20035;-89
2021/12/26 14:10:33;;;;;;;4.03;2.10;;;;;;;;;;4939190;29;20338;-91
2021/12/26 14:13:00;;;;;;;4.03;2.13;;;;;;;;;;4948582;28;20042;-87
2021/12/26 14:15:29;;;;;;;4.60;2.55;;;;;;;;;;4966610;28;20102;-88
2021/12/26 14:17:57;;;;;;;4.68;2.47;;;;;;;;;;4973266;28;20038;-87
2021/12/26 14:20:23;;;;;;;3.05;2.03;;;;;;;;;;4961728;28;20045;-91
2021/12/26 14:22:51;;;;;;;3.25;1.80;;;;;;;;;;4961382;28;20456;-89
2021/12/26 14:25:19;;;;;;;4.28;1.90;;;;;;;;;;4961835;28;20049;-89
2021/12/26 14:27:45;;;;;;;7.38;2.53;;;;;;;;;;4978092;28;20038;-90
2021/12/26 14:30:12;;;;;;;5.63;2.00;;;;;;;;;;4960668;28;20023;-85
2021/12/26 14:32:40;;;;;;;4.20;1.50;;;;;;;;;;4961490;28;20030;-90
2021/12/26 14:35:12;;;;;;;2.63;1.88;;;;;;;;;;4959728;28;20172;-90
2021/12/26 14:37:40;;;;;;;9.88;2.10;;;;;;;;;;5008240;28;20235;-89
2021/12/26 14:40:10;;;;;;;2.42;2.00;;;;;;;;;;4972282;28;20136;-89
2021/12/26 14:42:47;;;;;;;4.82;2.28;;;;;;;;;;4989688;28;20038;-89
2021/12/26 14:45:14;;;;;;;5.65;2.50;;;;;;;;;;5005443;28;20033;-89
2021/12/26 14:47:50;;;;;;;3.47;2.03;;;;;;;;;;4975434;28;20031;-89
2021/12/26 14:50:17;;;;;;;3.75;1.50;;;;;;;;;;4972694;28;20407;-89
2021/12/26 14:52:51;;;;;;;6.28;2.60;;;;;;;;;;4989700;28;20026;-88
2021/12/26 14:55:22;;;;;;;8.43;1.87;;;;;;;;;;5007174;28;20352;-87
2021/12/26 14:57:50;;;;;;;3.28;1.73;;;;;;;;;;5008063;28;20445;-86
2021/12/26 15:00:26;;;;;;;2.15;1.98;;;;;;;;;;4992648;28;20232;-87
2021/12/26 15:02:56;;;;;;;5.40;2.22;;;;;;;;;;4970381;28;20081;-89
2021/12/26 15:05:33;;;;;;;4.50;2.70;;;;;;;;;;4999041;28;20077;-88
2021/12/26 15:08:00;;;;;;;3.50;2.03;;;;;;;;;;4974391;28;20050;-92
2021/12/26 15:10:33;;;;;;;7.47;2.72;;;;;;;;;;4998512;28;20041;-89
2021/12/26 15:12:59;;;;;;;2.58;1.42;;;;;;;;;;5013428;28;20063;-87
2021/12/26 15:15:26;;;;;;;5.65;2.40;;;;;;;;;;5004392;28;20106;-87
2021/12/26 15:17:53;;;;;;;6.10;2.75;;;;;;;;;;4992528;28;20205;-85
2021/12/26 15:20:25;;;;;;;3.05;1.67;;;;;;;;;;5003941;28;20042;-87
2021/12/26 15:23:04;;;;;;;4.75;2.08;;;;;;;;;;5001910;28;20035;-84
2021/12/26 15:25:33;;;;;;;4.82;2.38;;;;;;;;;;5001953;28;20034;-89
2021/12/26 15:28:25;;;;;;;3.17;2.40;;;;;;;;;;4994628;28;20106;-91
2021/12/26 15:31:10;;;;;;;2.70;1.92;;;;;;;;;;4991146;28;20153;-87
2021/12/26 15:33:49;;;;;;;7.57;2.30;;;;;;;;;;4990423;28;20400;-88
2021/12/26 15:36:20;;;;;;;4.28;2.08;;;;;;;;;;4995357;28;20061;-89
2021/12/26 15:38:47;;;;;;;5.78;2.10;;;;;;;;;;4980270;28;20022;-88
2021/12/26 15:41:25;;;;;;;6.32;2.90;;;;;;;;;;4995482;28;20086;-90
2021/12/26 15:43:51;;;;;;;6.75;2.38;;;;;;;;;;4978835;28;20035;-87
2021/12/26 15:46:18;;;;;;;5.60;2.17;;;;;;;;;;4988731;28;20041;-87
2021/12/26 15:48:47;;;;;;;3.22;1.63;;;;;;;;;;4991870;28;20065;-89
2021/12/26 15:51:13;;;;;;;2.88;1.52;;;;;;;;;;4980001;28;20405;-87
2021/12/26 15:53:42;;;;;;;5.40;2.92;;;;;;;;;;4984061;28;20034;-85
2021/12/26 15:56:08;;;;;;;2.30;1.92;;;;;;;;;;4999004;28;20057;-86
2021/12/26 15:58:40;;;;;;;4.93;2.83;;;;;;;;;;4964429;28;20533;-88
2021/12/26 16:01:06;;;;;;;4.25;2.17;;;;;;;;;;4993865;28;20027;-88
2021/12/26 16:03:59;;;;;;;4.32;2.83;;;;;;;;;;4991865;28;20027;-87
2021/12/26 16:06:43;;;;;;;9.43;4.65;;;;;;;;;;4969528;28;20038;-88
2021/12/26 16:12:59;;;;;;;4.55;2.63;;;;;;;;;;4880042;29;20052;-89
2021/12/26 16:25:59;;;;;;;4.00;1.95;;;;;;;;;;4835775;29;20392;-88
2021/12/26 16:29:48;;;;;;;3.53;1.90;;;;;;;;;;4831872;29;20038;-88
2021/12/26 16:36:31;;;;;;;5.47;2.85;;;;;;;;;;4820868;29;20501;-90
2021/12/26 16:39:30;;;;;;;4.50;2.38;;;;;;;;;;4811573;29;20061;-89
2021/12/26 16:42:17;;;;;;;4.78;2.30;;;;;;;;;;4835255;29;20096;-87
2021/12/26 16:45:25;;;;;;;;;;;;;;;;;;;;;
2021/12/26 16:48:37;;;;;;;12.07;3.95;;;;;;;;;;4824842;29;20997;-88
2021/12/26 16:51:24;;;;;;;8.07;2.47;;;;;;;;;;4839843;29;20802;-89
2021/12/26 16:54:31;;;;;;;;;;;;;;;;;;;;;
2021/12/26 16:57:30;;;;;;;4.45;2.03;;;;;;;;;;4862605;29;20056;-88
2021/12/26 17:00:50;;;;;;;8.77;3.65;;;;;;;;;;4908358;29;20032;-89
2021/12/26 17:04:10;;;;;;;4.07;2.28;;;;;;;;;;4929588;29;20051;-89
2021/12/26 17:06:57;;;;;;;7.43;3.03;;;;;;;;;;4943238;28;20039;-87
2021/12/26 17:10:07;;;;;;;5.25;2.30;;;;;;;;;;4955805;28;20640;-87
2021/12/26 17:12:40;;;;;;;2.83;2.25;;;;;;;;;;4941922;29;20074;-87
2021/12/26 17:15:06;;;;;;;4.32;2.28;;;;;;;;;;4936254;29;20050;-87
2021/12/26 17:17:33;;;;;;;8.43;2.47;;;;;;;;;;4939149;29;20043;-89
2021/12/26 17:20:05;;;;;;;3.92;2.65;;;;;;;;;;4938652;29;20039;-87
2021/12/26 17:22:30;;;;;;;5.03;3.22;;;;;;;;;;4940780;28;20043;-86
2021/12/26 17:28:00;;;;;;;6.23;2.30;;;;;;;;;;4928129;29;20059;-88
2021/12/26 17:30:30;;;;;;;4.93;2.42;;;;;;;;;;4989093;28;20592;-86
2021/12/26 17:36:47;;;;;;;6.60;2.03;;;;;;;;;;4998043;28;20037;-88
2021/12/26 17:39:17;;;;;;;5.88;3.78;;;;;;;;;;4967527;28;20034;-88
2021/12/26 17:41:43;;;;;;;3.58;2.50;;;;;;;;;;4985039;28;20042;-89
2021/12/26 17:44:16;;;;;;;6.05;3.20;;;;;;;;;;4985280;28;20023;-86
2021/12/26 17:47:05;;;;;;;15.48;3.13;;;;;;;;;;4995658;28;20033;-87
2021/12/26 17:49:52;;;;;;;7.35;2.67;;;;;;;;;;4984883;28;20026;-87
2021/12/26 17:52:30;;;;;;;6.72;2.65;;;;;;;;;;4999466;28;20104;-88
2021/12/26 17:55:03;;;;;;;6.60;3.55;;;;;;;;;;4996606;28;20033;-89
2021/12/26 17:57:33;;;;;;;3.75;2.58;;;;;;;;;;4992880;28;20054;-88
2021/12/26 18:00:18;;;;;;;3.47;2.47;;;;;;;;;;4991343;28;20211;-91
2021/12/26 18:02:51;;;;;;;6.88;3.20;;;;;;;;;;4995481;28;20031;-89
2021/12/26 18:05:18;;;;;;;5.57;2.65;;;;;;;;;;4993607;28;20023;-88
2021/12/26 18:07:46;;;;;;;7.05;3.50;;;;;;;;;;4997876;28;20026;-88
2021/12/26 18:10:13;;;;;;;15.13;3.20;;;;;;;;;;4997865;28;20061;-90
2021/12/26 18:15:47;;;;;;;11.38;4.57;;;;;;;;;;4991954;28;20053;-89
2021/12/26 18:18:15;;;;;;;5.80;3.28;;;;;;;;;;5004626;28;20034;-87
2021/12/26 18:20:43;;;;;;;6.18;3.13;;;;;;;;;;4988290;28;20022;-89
2021/12/26 18:23:08;;;;;;;11.35;4.25;;;;;;;;;;4985655;28;20030;-89
2021/12/26 18:25:41;;;;;;;5.80;2.67;;;;;;;;;;4988563;28;20022;-89
2021/12/26 18:28:19;;;;;;;8.15;3.67;;;;;;;;;;4990587;28;20037;-89
2021/12/26 18:31:06;;;;;;;;;;;;;;;;;;;;;